sensor_id;sensor_type;location;lat;lon;timestamp;pressure;altitude;pressure_sealevel;temperature;humidity
32109;BME280;18624;50.042;8.436;2023-04-08T00:00:44;100865.06;;;7.56;100.00
32109;BME280;18624;50.042;8.436;2023-04-08T00:03:11;100772.94;;;6.97;100.00
32109;BME280;18624;50.042;8.436;2023-04-08T00:05:37;100852.97;;;7.60;100.00
32109;BME280;18624;50.042;8.436;2023-04-08T00:08:04;100780.72;;;7.09;100.00
32109;BME280;18624;50.042;8.436;2023-04-08T00:10:32;100826.22;;;7.34;100.00
32109;BME280;18624;50.042;8.436;2023-04-08T00:12:58;100858.47;;;7.57;100.00
32109;BME280;18624;50.042;8.436;2023-04-08T00:15:26;100859.22;;;7.57;100.00
32109;BME280;18624;50.042;8.436;2023-04-08T00:17:52;100810.63;;;7.27;100.00
32109;BME280;18624;50.042;8.436;2023-04-08T00:20:22;100862.31;;;7.63;100.00
32109;BME280;18624;50.042;8.436;2023-04-08T00:22:49;100858.81;;;7.63;100.00
32109;BME280;18624;50.042;8.436;2023-04-08T00:25:16;100866.25;;;7.58;100.00
32109;BME280;18624;50.042;8.436;2023-04-08T00:27:42;100800.16;;;7.19;100.00
32109;BME280;18624;50.042;8.436;2023-04-08T00:30:09;100870.91;;;7.58;100.00
32109;BME280;18624;50.042;8.436;2023-04-08T00:32:36;100864.28;;;7.59;100.00
32109;BME280;18624;50.042;8.436;2023-04-08T00:35:03;100870.13;;;7.61;100.00
32109;BME280;18624;50.042;8.436;2023-04-08T00:37:30;100866.22;;;7.62;100.00
32109;BME280;18624;50.042;8.436;2023-04-08T00:39:57;100873.63;;;7.61;100.00
32109;BME280;18624;50.042;8.436;2023-04-08T00:42:23;100870.91;;;7.58;100.00
32109;BME280;18624;50.042;8.436;2023-04-08T00:44:49;100865.47;;;7.54;100.00
32109;BME280;18624;50.042;8.436;2023-04-08T00:47:16;100874.06;;;7.53;100.00
32109;BME280;18624;50.042;8.436;2023-04-08T00:49:44;100868.56;;;7.56;100.00
32109;BME280;18624;50.042;8.436;2023-04-08T00:52:11;100783.84;;;7.01;100.00
32109;BME280;18624;50.042;8.436;2023-04-08T00:54:38;100867.41;;;7.57;100.00
32109;BME280;18624;50.042;8.436;2023-04-08T00:57:05;100871.28;;;7.64;100.00
32109;BME280;18624;50.042;8.436;2023-04-08T00:59:32;100869.72;;;7.63;100.00
32109;BME280;18624;50.042;8.436;2023-04-08T01:02:30;100879.06;;;7.69;100.00
32109;BME280;18624;50.042;8.436;2023-04-08T01:05:06;100794.34;;;7.13;100.00
32109;BME280;18624;50.042;8.436;2023-04-08T01:07:36;100879.44;;;7.71;100.00
32109;BME280;18624;50.042;8.436;2023-04-08T01:10:12;100885.28;;;7.69;100.00
32109;BME280;18624;50.042;8.436;2023-04-08T01:12:43;100874.75;;;7.71;100.00
32109;BME280;18624;50.042;8.436;2023-04-08T01:15:14;100881.78;;;7.69;100.00
32109;BME280;18624;50.042;8.436;2023-04-08T01:17:42;100784.63;;;6.98;100.00
32109;BME280;18624;50.042;8.436;2023-04-08T01:20:10;100879.94;;;7.48;100.00
32109;BME280;18624;50.042;8.436;2023-04-08T01:22:54;100888.84;;;7.55;100.00
32109;BME280;18624;50.042;8.436;2023-04-08T01:25:27;100872.88;;;7.54;100.00
32109;BME280;18624;50.042;8.436;2023-04-08T01:27:57;100822.34;;;7.17;100.00
32109;BME280;18624;50.042;8.436;2023-04-08T01:30:26;100881.84;;;7.47;100.00
32109;BME280;18624;50.042;8.436;2023-04-08T01:32:56;100879.53;;;7.42;100.00
32109;BME280;18624;50.042;8.436;2023-04-08T01:35:25;100876.81;;;7.42;100.00
32109;BME280;18624;50.042;8.436;2023-04-08T01:37:52;100881.13;;;7.43;100.00
32109;BME280;18624;50.042;8.436;2023-04-08T01:40:21;100786.22;;;6.88;100.00
32109;BME280;18624;50.042;8.436;2023-04-08T01:42:48;100876.78;;;7.49;100.00
32109;BME280;18624;50.042;8.436;2023-04-08T01:45:16;100791.63;;;7.02;100.00
32109;BME280;18624;50.042;8.436;2023-04-08T01:47:48;100866.25;;;7.55;100.00
32109;BME280;18624;50.042;8.436;2023-04-08T01:50:15;100811.06;;;7.15;100.00
32109;BME280;18624;50.042;8.436;2023-04-08T01:52:46;100882.22;;;7.56;100.00
32109;BME280;18624;50.042;8.436;2023-04-08T01:55:14;100877.56;;;7.57;100.00
32109;BME280;18624;50.042;8.436;2023-04-08T01:57:43;100878.72;;;7.56;100.00
32109;BME280;18624;50.042;8.436;2023-04-08T02:00:15;100866.66;;;7.46;100.00
32109;BME280;18624;50.042;8.436;2023-04-08T02:02:46;100886.13;;;7.55;100.00
32109;BME280;18624;50.042;8.436;2023-04-08T02:05:14;100837.13;;;7.23;100.00
32109;BME280;18624;50.042;8.436;2023-04-08T02:07:41;100880.69;;;7.48;100.00
32109;BME280;18624;50.042;8.436;2023-04-08T02:10:08;100884.56;;;7.47;100.00
32109;BME280;18624;50.042;8.436;2023-04-08T02:12:34;100865.94;;;7.39;100.00
32109;BME280;18624;50.042;8.436;2023-04-08T02:15:01;100874.88;;;7.39;100.00
32109;BME280;18624;50.042;8.436;2023-04-08T02:17:46;100888.13;;;7.41;100.00
32109;BME280;18624;50.042;8.436;2023-04-08T02:20:22;100879.16;;;7.33;100.00
32109;BME280;18624;50.042;8.436;2023-04-08T02:22:56;100877.63;;;7.35;100.00
32109;BME280;18624;50.042;8.436;2023-04-08T02:25:26;100886.56;;;7.32;100.00
32109;BME280;18624;50.042;8.436;2023-04-08T02:27:55;100896.34;;;7.30;100.00
32109;BME280;18624;50.042;8.436;2023-04-08T02:30:24;100895.94;;;7.28;100.00
32109;BME280;18624;50.042;8.436;2023-04-08T02:32:53;100887.38;;;7.26;100.00
32109;BME280;18624;50.042;8.436;2023-04-08T02:35:21;100887.00;;;7.24;100.00
32109;BME280;18624;50.042;8.436;2023-04-08T02:37:49;100885.47;;;7.08;100.00
32109;BME280;18624;50.042;8.436;2023-04-08T02:40:23;100902.19;;;7.18;100.00
32109;BME280;18624;50.042;8.436;2023-04-08T02:42:51;100890.53;;;7.10;100.00
32109;BME280;18624;50.042;8.436;2023-04-08T02:45:18;100898.31;;;7.12;100.00
32109;BME280;18624;50.042;8.436;2023-04-08T02:47:44;100857.84;;;6.81;100.00
32109;BME280;18624;50.042;8.436;2023-04-08T02:50:11;100900.66;;;7.06;100.00
32109;BME280;18624;50.042;8.436;2023-04-08T02:52:37;100879.63;;;6.92;100.00
32109;BME280;18624;50.042;8.436;2023-04-08T02:55:05;100854.38;;;6.67;100.00
32109;BME280;18624;50.042;8.436;2023-04-08T02:57:39;100902.25;;;6.89;100.00
32109;BME280;18624;50.042;8.436;2023-04-08T03:00:07;100878.47;;;6.75;100.00
32109;BME280;18624;50.042;8.436;2023-04-08T03:02:34;100913.50;;;6.88;100.00
32109;BME280;18624;50.042;8.436;2023-04-08T03:05:01;100905.31;;;6.84;100.00
32109;BME280;18624;50.042;8.436;2023-04-08T03:07:28;100906.50;;;6.83;100.00
32109;BME280;18624;50.042;8.436;2023-04-08T03:09:55;100904.94;;;6.82;100.00
32109;BME280;18624;50.042;8.436;2023-04-08T03:12:21;100869.94;;;6.55;100.00
32109;BME280;18624;50.042;8.436;2023-04-08T03:14:49;100910.78;;;6.77;100.00
32109;BME280;18624;50.042;8.436;2023-04-08T03:17:15;100911.56;;;6.74;100.00
32109;BME280;18624;50.042;8.436;2023-04-08T03:19:42;100927.13;;;6.70;100.00
32109;BME280;18624;50.042;8.436;2023-04-08T03:22:08;100904.94;;;6.64;100.00
32109;BME280;18624;50.042;8.436;2023-04-08T03:24:35;100926.34;;;6.58;100.00
32109;BME280;18624;50.042;8.436;2023-04-08T03:27:02;100915.84;;;6.53;100.00
32109;BME280;18624;50.042;8.436;2023-04-08T03:29:29;100913.09;;;6.46;100.00
32109;BME280;18624;50.042;8.436;2023-04-08T03:31:56;100871.81;;;6.16;100.00
32109;BME280;18624;50.042;8.436;2023-04-08T03:34:22;100922.47;;;6.49;100.00
32109;BME280;18624;50.042;8.436;2023-04-08T03:36:49;100917.38;;;6.47;100.00
32109;BME280;18624;50.042;8.436;2023-04-08T03:39:16;100927.47;;;6.43;100.00
32109;BME280;18624;50.042;8.436;2023-04-08T03:41:42;100894.41;;;6.23;100.00
32109;BME280;18624;50.042;8.436;2023-04-08T03:44:08;100920.47;;;6.39;100.00
32109;BME280;18624;50.042;8.436;2023-04-08T03:46:35;100922.81;;;6.37;100.00
32109;BME280;18624;50.042;8.436;2023-04-08T03:49:02;100925.94;;;6.35;100.00
32109;BME280;18624;50.042;8.436;2023-04-08T03:51:28;100933.72;;;6.37;100.00
32109;BME280;18624;50.042;8.436;2023-04-08T03:53:54;100920.06;;;6.26;100.00
32109;BME280;18624;50.042;8.436;2023-04-08T03:56:21;100927.09;;;6.30;100.00
32109;BME280;18624;50.042;8.436;2023-04-08T03:58:47;100932.91;;;6.29;100.00
32109;BME280;18624;50.042;8.436;2023-04-08T04:01:15;100916.91;;;6.17;100.00
32109;BME280;18624;50.042;8.436;2023-04-08T04:03:42;100938.72;;;6.20;100.00
32109;BME280;18624;50.042;8.436;2023-04-08T04:06:08;100941.41;;;6.17;100.00
32109;BME280;18624;50.042;8.436;2023-04-08T04:08:35;100937.13;;;6.08;100.00
32109;BME280;18624;50.042;8.436;2023-04-08T04:11:01;100932.84;;;6.04;100.00
32109;BME280;18624;50.042;8.436;2023-04-08T04:13:28;100935.16;;;6.02;100.00
32109;BME280;18624;50.042;8.436;2023-04-08T04:15:54;100858.38;;;5.46;100.00
32109;BME280;18624;50.042;8.436;2023-04-08T04:18:22;100943.69;;;5.97;100.00
32109;BME280;18624;50.042;8.436;2023-04-08T04:20:48;100931.97;;;5.86;100.00
32109;BME280;18624;50.042;8.436;2023-04-08T04:23:15;100943.63;;;5.90;100.00
32109;BME280;18624;50.042;8.436;2023-04-08T04:25:41;100946.75;;;5.88;100.00
32109;BME280;18624;50.042;8.436;2023-04-08T04:28:08;100914.34;;;5.62;100.00
32109;BME280;18624;50.042;8.436;2023-04-08T04:30:38;100911.22;;;5.56;100.00
32109;BME280;18624;50.042;8.436;2023-04-08T04:33:06;100958.75;;;5.76;100.00
32109;BME280;18624;50.042;8.436;2023-04-08T04:35:32;100875.25;;;5.11;100.00
32109;BME280;18624;50.042;8.436;2023-04-08T04:37:59;100965.66;;;5.67;100.00
32109;BME280;18624;50.042;8.436;2023-04-08T04:40:26;100841.66;;;4.78;100.00
32109;BME280;18624;50.042;8.436;2023-04-08T04:42:52;100847.94;;;4.90;100.00
32109;BME280;18624;50.042;8.436;2023-04-08T04:45:19;100960.22;;;5.59;100.00
32109;BME280;18624;50.042;8.436;2023-04-08T04:47:45;100961.72;;;5.57;100.00
32109;BME280;18624;50.042;8.436;2023-04-08T04:50:11;100958.97;;;5.53;100.00
32109;BME280;18624;50.042;8.436;2023-04-08T04:52:38;100952.31;;;5.44;100.00
32109;BME280;18624;50.042;8.436;2023-04-08T04:55:05;100877.78;;;4.86;100.00
32109;BME280;18624;50.042;8.436;2023-04-08T04:57:31;100928.84;;;5.14;100.00
32109;BME280;18624;50.042;8.436;2023-04-08T04:59:58;100963.19;;;5.40;100.00
32109;BME280;18624;50.042;8.436;2023-04-08T05:02:24;100965.50;;;5.38;100.00
32109;BME280;18624;50.042;8.436;2023-04-08T05:04:51;100965.50;;;5.38;100.00
32109;BME280;18624;50.042;8.436;2023-04-08T05:07:21;100960.47;;;5.37;100.00
32109;BME280;18624;50.042;8.436;2023-04-08T05:09:47;100957.75;;;5.37;100.00
32109;BME280;18624;50.042;8.436;2023-04-08T05:12:14;100892.94;;;4.91;100.00
32109;BME280;18624;50.042;8.436;2023-04-08T05:14:49;100960.00;;;5.31;100.00
32109;BME280;18624;50.042;8.436;2023-04-08T05:17:15;100965.03;;;5.25;100.00
32109;BME280;18624;50.042;8.436;2023-04-08T05:19:42;100967.72;;;5.22;100.00
32109;BME280;18624;50.042;8.436;2023-04-08T05:22:08;100965.75;;;5.19;100.00
32109;BME280;18624;50.042;8.436;2023-04-08T05:24:35;100970.38;;;5.15;100.00
32109;BME280;18624;50.042;8.436;2023-04-08T05:27:01;100918.88;;;4.81;100.00
32109;BME280;18624;50.042;8.436;2023-04-08T05:29:28;100968.03;;;5.10;100.00
32109;BME280;18624;50.042;8.436;2023-04-08T05:31:54;100969.63;;;5.14;100.00
32109;BME280;18624;50.042;8.436;2023-04-08T05:34:21;100976.56;;;5.12;100.00
32109;BME280;18624;50.042;8.436;2023-04-08T05:36:49;100971.56;;;5.14;100.00
32109;BME280;18624;50.042;8.436;2023-04-08T05:39:19;100845.94;;;4.31;100.00
32109;BME280;18624;50.042;8.436;2023-04-08T05:41:45;100930.22;;;4.90;100.00
32109;BME280;18624;50.042;8.436;2023-04-08T05:44:12;100965.31;;;5.10;100.00
32109;BME280;18624;50.042;8.436;2023-04-08T05:46:39;100979.78;;;5.24;100.00
32109;BME280;18624;50.042;8.436;2023-04-08T05:49:05;100950.06;;;4.98;100.00
32109;BME280;18624;50.042;8.436;2023-04-08T05:51:32;100984.84;;;5.29;100.00
32109;BME280;18624;50.042;8.436;2023-04-08T05:53:58;100996.94;;;5.32;100.00
32109;BME280;18624;50.042;8.436;2023-04-08T05:56:25;100995.75;;;5.33;100.00
32109;BME280;18624;50.042;8.436;2023-04-08T05:58:51;101003.16;;;5.32;100.00
32109;BME280;18624;50.042;8.436;2023-04-08T06:01:18;101014.72;;;5.26;100.00
32109;BME280;18624;50.042;8.436;2023-04-08T06:03:44;101009.69;;;5.24;100.00
32109;BME280;18624;50.042;8.436;2023-04-08T06:06:11;101012.78;;;5.26;100.00
32109;BME280;18624;50.042;8.436;2023-04-08T06:08:37;101017.50;;;5.33;100.00
32109;BME280;18624;50.042;8.436;2023-04-08T06:11:04;101013.59;;;5.30;100.00
32109;BME280;18624;50.042;8.436;2023-04-08T06:13:30;101008.50;;;5.25;100.00
32109;BME280;18624;50.042;8.436;2023-04-08T06:15:57;101020.25;;;5.40;100.00
32109;BME280;18624;50.042;8.436;2023-04-08T06:18:24;101026.50;;;5.44;100.00
32109;BME280;18624;50.042;8.436;2023-04-08T06:20:51;101032.75;;;5.48;100.00
32109;BME280;18624;50.042;8.436;2023-04-08T06:23:17;101037.06;;;5.49;100.00
32109;BME280;18624;50.042;8.436;2023-04-08T06:25:43;101028.94;;;5.56;100.00
32109;BME280;18624;50.042;8.436;2023-04-08T06:28:10;101030.88;;;5.56;100.00
32109;BME280;18624;50.042;8.436;2023-04-08T06:30:36;101038.25;;;5.55;100.00
32109;BME280;18624;50.042;8.436;2023-04-08T06:33:03;101037.50;;;5.58;100.00
32109;BME280;18624;50.042;8.436;2023-04-08T06:35:29;101040.25;;;5.66;100.00
32109;BME280;18624;50.042;8.436;2023-04-08T06:37:57;100958.41;;;5.23;100.00
32109;BME280;18624;50.042;8.436;2023-04-08T06:40:24;100979.03;;;5.31;100.00
32109;BME280;18624;50.042;8.436;2023-04-08T06:42:50;101038.78;;;5.79;100.00
32109;BME280;18624;50.042;8.436;2023-04-08T06:45:31;101043.84;;;5.80;100.00
32109;BME280;18624;50.042;8.436;2023-04-08T06:47:58;101047.00;;;5.86;100.00
32109;BME280;18624;50.042;8.436;2023-04-08T06:50:24;101045.84;;;5.87;100.00
32109;BME280;18624;50.042;8.436;2023-04-08T06:52:51;101065.41;;;6.00;100.00
32109;BME280;18624;50.042;8.436;2023-04-08T06:55:17;101065.06;;;6.08;100.00
32109;BME280;18624;50.042;8.436;2023-04-08T06:57:43;100986.22;;;5.61;100.00
32109;BME280;18624;50.042;8.436;2023-04-08T07:00:10;101056.53;;;6.17;100.00
32109;BME280;18624;50.042;8.436;2023-04-08T07:02:37;101056.97;;;6.23;100.00
32109;BME280;18624;50.042;8.436;2023-04-08T07:05:03;101068.66;;;6.27;100.00
32109;BME280;18624;50.042;8.436;2023-04-08T07:07:30;101065.53;;;6.28;100.00
32109;BME280;18624;50.042;8.436;2023-04-08T07:09:57;101066.31;;;6.32;100.00
32109;BME280;18624;50.042;8.436;2023-04-08T07:12:23;101065.97;;;6.38;100.00
32109;BME280;18624;50.042;8.436;2023-04-08T07:14:50;101068.72;;;6.45;100.00
32109;BME280;18624;50.042;8.436;2023-04-08T07:17:18;100976.66;;;5.88;100.00
32109;BME280;18624;50.042;8.436;2023-04-08T07:19:44;101080.44;;;6.59;100.00
32109;BME280;18624;50.042;8.436;2023-04-08T07:22:11;101082.81;;;6.68;100.00
32109;BME280;18624;50.042;8.436;2023-04-08T07:24:37;101082.44;;;6.77;100.00
32109;BME280;18624;50.042;8.436;2023-04-08T07:27:03;101080.13;;;6.82;100.00
32109;BME280;18624;50.042;8.436;2023-04-08T07:29:30;101086.75;;;6.89;100.00
32109;BME280;18624;50.042;8.436;2023-04-08T07:31:56;101082.09;;;6.96;100.00
32109;BME280;18624;50.042;8.436;2023-04-08T07:34:23;101088.72;;;6.99;100.00
32109;BME280;18624;50.042;8.436;2023-04-08T07:36:49;101005.72;;;6.50;100.00
32109;BME280;18624;50.042;8.436;2023-04-08T07:39:16;101080.53;;;7.02;100.00
32109;BME280;18624;50.042;8.436;2023-04-08T07:41:42;101087.19;;;7.12;100.00
32109;BME280;18624;50.042;8.436;2023-04-08T07:44:09;101085.25;;;7.16;100.00
32109;BME280;18624;50.042;8.436;2023-04-08T07:46:36;101072.00;;;7.15;100.00
32109;BME280;18624;50.042;8.436;2023-04-08T07:49:03;101094.63;;;7.36;100.00
32109;BME280;18624;50.042;8.436;2023-04-08T07:51:30;101098.13;;;7.44;100.00
32109;BME280;18624;50.042;8.436;2023-04-08T07:53:56;101088.41;;;7.43;100.00
32109;BME280;18624;50.042;8.436;2023-04-08T07:56:23;101086.81;;;7.46;100.00
32109;BME280;18624;50.042;8.436;2023-04-08T07:58:49;101090.72;;;7.52;100.00
32109;BME280;18624;50.042;8.436;2023-04-08T08:01:20;101096.94;;;7.56;100.00
32109;BME280;18624;50.042;8.436;2023-04-08T08:03:51;101026.03;;;7.06;100.00
32109;BME280;18624;50.042;8.436;2023-04-08T08:06:19;101100.84;;;7.58;100.00
32109;BME280;18624;50.042;8.436;2023-04-08T08:08:45;101101.22;;;7.60;100.00
32109;BME280;18624;50.042;8.436;2023-04-08T08:11:12;101104.38;;;7.66;100.00
32109;BME280;18624;50.042;8.436;2023-04-08T08:13:38;101084.09;;;7.49;100.00
32109;BME280;18624;50.042;8.436;2023-04-08T08:16:05;101119.97;;;7.66;100.00
32109;BME280;18624;50.042;8.436;2023-04-08T08:18:34;101124.25;;;7.67;100.00
32109;BME280;18624;50.042;8.436;2023-04-08T08:21:02;101089.94;;;7.41;100.00
32109;BME280;18624;50.042;8.436;2023-04-08T08:23:28;101108.28;;;7.58;100.00
32109;BME280;18624;50.042;8.436;2023-04-08T08:26:01;101116.84;;;7.67;100.00
32109;BME280;18624;50.042;8.436;2023-04-08T08:28:28;101130.09;;;7.69;100.00
32109;BME280;18624;50.042;8.436;2023-04-08T08:30:54;101130.09;;;7.69;100.00
32109;BME280;18624;50.042;8.436;2023-04-08T08:33:21;101129.31;;;7.68;100.00
32109;BME280;18624;50.042;8.436;2023-04-08T08:35:48;101084.09;;;7.42;100.00
32109;BME280;18624;50.042;8.436;2023-04-08T08:38:14;101137.50;;;7.75;100.00
32109;BME280;18624;50.042;8.436;2023-04-08T08:40:43;101102.41;;;7.49;100.00
32109;BME280;18624;50.042;8.436;2023-04-08T08:43:10;101060.34;;;7.21;100.00
32109;BME280;18624;50.042;8.436;2023-04-08T08:45:40;101142.19;;;7.75;100.00
32109;BME280;18624;50.042;8.436;2023-04-08T08:48:07;101142.19;;;7.75;100.00
32109;BME280;18624;50.042;8.436;2023-04-08T08:50:34;101146.84;;;7.81;100.00
32109;BME280;18624;50.042;8.436;2023-04-08T08:53:01;101135.94;;;7.85;100.00
32109;BME280;18624;50.042;8.436;2023-04-08T08:55:31;101057.22;;;7.26;100.00
32109;BME280;18624;50.042;8.436;2023-04-08T08:58:19;101140.22;;;7.86;100.00
32109;BME280;18624;50.042;8.436;2023-04-08T09:00:45;101141.00;;;7.86;100.00
32109;BME280;18624;50.042;8.436;2023-04-08T09:03:19;101147.63;;;7.89;100.00
32109;BME280;18624;50.042;8.436;2023-04-08T09:11:11;101161.28;;;7.85;100.00
32109;BME280;18624;50.042;8.436;2023-04-08T09:13:38;101133.97;;;7.64;100.00
32109;BME280;18624;50.042;8.436;2023-04-08T09:16:09;101165.19;;;7.81;100.00
32109;BME280;18624;50.042;8.436;2023-04-08T09:18:37;101170.63;;;7.84;100.00
32109;BME280;18624;50.042;8.436;2023-04-08T09:21:05;101168.69;;;7.89;100.00
32109;BME280;18624;50.042;8.436;2023-04-08T09:23:47;101082.94;;;7.40;100.00
32109;BME280;18624;50.042;8.436;2023-04-08T09:26:15;101174.53;;;7.98;100.00
32109;BME280;18624;50.042;8.436;2023-04-08T09:28:44;101169.81;;;8.05;100.00
32109;BME280;18624;50.042;8.436;2023-04-08T09:31:25;101162.03;;;8.07;100.00
32109;BME280;18624;50.042;8.436;2023-04-08T09:33:55;101165.16;;;8.06;100.00
32109;BME280;18624;50.042;8.436;2023-04-08T09:36:22;101133.97;;;7.82;100.00
32109;BME280;18624;50.042;8.436;2023-04-08T09:38:48;101021.38;;;7.14;100.00
32109;BME280;18624;50.042;8.436;2023-04-08T09:41:16;101179.22;;;8.15;100.00
32109;BME280;18624;50.042;8.436;2023-04-08T09:43:47;101144.13;;;7.85;100.00
32109;BME280;18624;50.042;8.436;2023-04-08T09:46:18;101183.88;;;8.15;100.00
32109;BME280;18624;50.042;8.436;2023-04-08T09:48:55;101180.75;;;8.16;100.00
32109;BME280;18624;50.042;8.436;2023-04-08T09:51:24;101185.44;;;8.16;100.00
32109;BME280;18624;50.042;8.436;2023-04-08T09:54:00;101122.69;;;7.83;100.00
32109;BME280;18624;50.042;8.436;2023-04-08T09:56:40;101184.63;;;8.29;100.00
32109;BME280;18624;50.042;8.436;2023-04-08T09:59:13;101181.13;;;8.29;100.00
32109;BME280;18624;50.042;8.436;2023-04-08T10:01:46;101189.69;;;8.31;100.00
32109;BME280;18624;50.042;8.436;2023-04-08T10:04:15;101180.31;;;8.32;100.00
32109;BME280;18624;50.042;8.436;2023-04-08T10:06:43;101170.59;;;8.31;100.00
32109;BME280;18624;50.042;8.436;2023-04-08T10:09:10;101171.75;;;8.41;100.00
32109;BME280;18624;50.042;8.436;2023-04-08T10:11:37;101174.88;;;8.43;100.00
32109;BME280;18624;50.042;8.436;2023-04-08T10:14:04;101175.66;;;8.43;100.00
32109;BME280;18624;50.042;8.436;2023-04-08T10:16:31;101173.72;;;8.47;100.00
32109;BME280;18624;50.042;8.436;2023-04-08T10:18:57;101169.78;;;8.48;100.00
32109;BME280;18624;50.042;8.436;2023-04-08T10:21:36;101169.78;;;8.52;100.00
32109;BME280;18624;50.042;8.436;2023-04-08T10:24:08;101158.88;;;8.48;100.00
32109;BME280;18624;50.042;8.436;2023-04-08T10:31:44;101160.34;;;8.74;100.00
32109;BME280;18624;50.042;8.436;2023-04-08T10:34:18;101161.50;;;8.77;100.00
32109;BME280;18624;50.042;8.436;2023-04-08T10:36:46;101161.06;;;8.82;100.00
32109;BME280;18624;50.042;8.436;2023-04-08T10:39:13;101162.59;;;8.90;100.00
32109;BME280;18624;50.042;8.436;2023-04-08T10:44:37;101158.22;;;9.07;100.00
32109;BME280;18624;50.042;8.436;2023-04-08T10:47:09;101151.59;;;9.04;100.00
32109;BME280;18624;50.042;8.436;2023-04-08T10:49:36;101085.38;;;8.68;100.00
32109;BME280;18624;50.042;8.436;2023-04-08T10:52:07;101154.66;;;9.17;100.00
32109;BME280;18624;50.042;8.436;2023-04-08T10:54:35;101156.97;;;9.22;100.00
32109;BME280;18624;50.042;8.436;2023-04-08T10:57:01;101162.41;;;9.26;100.00
32109;BME280;18624;50.042;8.436;2023-04-08T10:59:30;101157.34;;;9.24;99.18
32109;BME280;18624;50.042;8.436;2023-04-08T11:01:58;101154.22;;;9.22;100.00
32109;BME280;18624;50.042;8.436;2023-04-08T11:04:25;101104.81;;;8.88;100.00
32109;BME280;18624;50.042;8.436;2023-04-08T11:06:52;101158.47;;;9.30;100.00
32109;BME280;18624;50.042;8.436;2023-04-08T11:09:19;101153.78;;;9.31;95.14
32109;BME280;18624;50.042;8.436;2023-04-08T11:11:45;101154.53;;;9.35;96.62
32109;BME280;18624;50.042;8.436;2023-04-08T11:14:13;101084.50;;;8.89;93.34
32109;BME280;18624;50.042;8.436;2023-04-08T11:16:41;101097.66;;;9.08;92.61
32109;BME280;18624;50.042;8.436;2023-04-08T11:19:07;101144.31;;;9.46;94.50
32109;BME280;18624;50.042;8.436;2023-04-08T11:21:39;101151.28;;;9.54;88.35
32109;BME280;18624;50.042;8.436;2023-04-08T11:24:19;101157.47;;;9.62;84.73
32109;BME280;18624;50.042;8.436;2023-04-08T11:26:53;101160.63;;;9.60;85.26
32109;BME280;18624;50.042;8.436;2023-04-08T11:29:19;101153.59;;;9.59;88.41
32109;BME280;18624;50.042;8.436;2023-04-08T11:31:46;101153.59;;;9.59;89.16
32109;BME280;18624;50.042;8.436;2023-04-08T11:34:21;101069.88;;;9.13;89.66
32109;BME280;18624;50.042;8.436;2023-04-08T11:36:48;101145.31;;;9.67;92.43
32109;BME280;18624;50.042;8.436;2023-04-08T11:39:15;101146.41;;;9.76;88.12
32109;BME280;18624;50.042;8.436;2023-04-08T11:41:41;101144.03;;;9.82;89.30
32109;BME280;18624;50.042;8.436;2023-04-08T11:44:08;101152.19;;;9.89;83.41
32109;BME280;18624;50.042;8.436;2023-04-08T11:46:34;101146.25;;;9.94;81.14
32109;BME280;18624;50.042;8.436;2023-04-08T11:49:05;101146.66;;;9.96;84.02
32109;BME280;18624;50.042;8.436;2023-04-08T11:51:33;101136.47;;;9.97;86.12
32109;BME280;18624;50.042;8.436;2023-04-08T11:54:04;101141.91;;;10.00;83.13
32109;BME280;18624;50.042;8.436;2023-04-08T11:56:43;101145.00;;;10.02;80.80
32109;BME280;18624;50.042;8.436;2023-04-08T11:59:11;101142.25;;;10.06;83.25
32109;BME280;18624;50.042;8.436;2023-04-08T12:01:37;101135.22;;;10.05;82.69
32109;BME280;18624;50.042;8.436;2023-04-08T12:04:04;101136.75;;;10.09;84.04
32109;BME280;18624;50.042;8.436;2023-04-08T12:06:32;101128.84;;;10.15;89.42
32109;BME280;18624;50.042;8.436;2023-04-08T12:08:59;101139.03;;;10.14;82.95
32109;BME280;18624;50.042;8.436;2023-04-08T12:11:25;101132.41;;;10.12;82.41
32109;BME280;18624;50.042;8.436;2023-04-08T12:13:52;101130.06;;;10.10;82.17
32109;BME280;18624;50.042;8.436;2023-04-08T12:16:19;101132.03;;;10.10;83.64
32109;BME280;18624;50.042;8.436;2023-04-08T12:18:46;101074.91;;;9.71;83.17
32109;BME280;18624;50.042;8.436;2023-04-08T12:21:12;101134.75;;;10.13;83.51
32109;BME280;18624;50.042;8.436;2023-04-08T12:23:39;101140.16;;;10.17;83.30
32109;BME280;18624;50.042;8.436;2023-04-08T12:26:05;101136.66;;;10.17;84.63
32109;BME280;18624;50.042;8.436;2023-04-08T12:28:33;101133.56;;;10.14;83.38
32109;BME280;18624;50.042;8.436;2023-04-08T12:31:00;101133.53;;;10.18;81.06
32109;BME280;18624;50.042;8.436;2023-04-08T12:33:27;101122.34;;;10.02;81.78
32109;BME280;18624;50.042;8.436;2023-04-08T12:35:53;101134.31;;;10.19;82.89
32109;BME280;18624;50.042;8.436;2023-04-08T12:38:20;101047.91;;;9.73;81.60
32109;BME280;18624;50.042;8.436;2023-04-08T12:40:46;101126.03;;;10.26;82.00
32109;BME280;18624;50.042;8.436;2023-04-08T12:43:15;101033.38;;;9.79;84.50
32109;BME280;18624;50.042;8.436;2023-04-08T12:45:41;101126.28;;;10.38;83.03
32109;BME280;18624;50.042;8.436;2023-04-08T12:48:08;101126.22;;;10.46;82.95
32109;BME280;18624;50.042;8.436;2023-04-08T12:50:35;101112.09;;;10.47;82.85
32109;BME280;18624;50.042;8.436;2023-04-08T12:53:02;101122.13;;;10.57;80.55
32109;BME280;18624;50.042;8.436;2023-04-08T12:55:28;101120.13;;;10.61;81.84
32109;BME280;18624;50.042;8.436;2023-04-08T12:57:54;101109.91;;;10.65;80.75
32109;BME280;18624;50.042;8.436;2023-04-08T13:00:21;101113.06;;;10.64;79.75
32109;BME280;18624;50.042;8.436;2023-04-08T13:02:48;101037.72;;;10.11;81.94
32109;BME280;18624;50.042;8.436;2023-04-08T13:05:14;101122.34;;;10.74;81.11
32109;BME280;18624;50.042;8.436;2023-04-08T13:07:42;101116.09;;;10.73;82.16